Time;durP1;ratioP1;P1;durP2;ratioP2;P2;SDS_P1;SDS_P2;PMS_P1;PMS_P2;Temp;Humidity;BMP_temperature;BMP_pressure;BME280_temperature;BME280_humidity;BME280_pressure;Samples;Min_cycle;Max_cycle;Signal;HPM_P1;HPM_P2
2022/07/03 00:00:15;;;;;;;;;2.00;2.00;;;;;23.48;38.32;101344.22;2087615;28;46211;-50
2022/07/03 00:01:16;;;;;;;;;1.00;1.00;;;;;23.46;38.69;101340.75;2086801;28;47130;-53
2022/07/03 00:02:16;;;;;;;;;1.50;1.50;;;;;23.46;38.46;101348.03;2086853;28;47399;-53
2022/07/03 00:03:17;;;;;;;;;3.50;3.50;;;;;23.45;38.42;101341.72;2087185;28;47431;-53
2022/07/03 00:04:19;;;;;;;;;2.50;2.50;;;;;23.43;38.54;101340.09;2087332;28;47450;-50
2022/07/03 00:05:20;;;;;;;;;4.00;3.00;;;;;23.42;38.31;101341.06;2094613;28;48031;-52
2022/07/03 00:06:20;;;;;;;;;3.50;3.50;;;;;23.42;38.50;101339.22;2094448;28;47587;-51
2022/07/03 00:07:22;;;;;;;;;2.50;2.50;;;;;23.41;38.51;101340.22;2087293;28;47623;-53
2022/07/03 00:08:22;;;;;;;;;3.20;3.20;;;;;23.39;38.42;101328.59;2087307;28;47676;-53
2022/07/03 00:09:23;;;;;;;;;3.00;1.50;;;;;23.39;38.28;101341.28;2087282;28;47736;-53
2022/07/03 00:10:23;;;;;;;;;2.00;2.00;;;;;23.39;38.49;101333.16;2087369;28;47738;-53
2022/07/03 00:11:24;;;;;;;;;2.00;2.00;;;;;23.38;38.60;101328.72;2087230;28;47310;-53
2022/07/03 00:12:25;;;;;;;;;2.00;2.00;;;;;23.37;38.62;101330.53;2086488;28;47028;-53
2022/07/03 00:13:26;;;;;;;;;2.20;2.00;;;;;23.36;38.41;101336.91;2086516;28;47894;-54
2022/07/03 00:14:26;;;;;;;;;1.00;1.00;;;;;23.36;38.17;101338.75;2087189;28;47477;-51
2022/07/03 00:15:27;;;;;;;;;1.00;1.00;;;;;23.35;38.37;101332.47;2086773;28;47410;-52
2022/07/03 00:16:28;;;;;;;;;1.00;1.00;;;;;23.35;38.58;101339.72;2079029;28;47071;-52
2022/07/03 00:17:28;;;;;;;;;3.20;1.80;;;;;23.34;38.46;101335.28;2085411;28;47705;-53
2022/07/03 00:18:29;;;;;;;;;1.00;1.00;;;;;23.32;38.39;101338.09;2086992;28;47901;-53
2022/07/03 00:19:29;;;;;;;;;0.75;0.75;;;;;23.32;38.54;101331.81;2087219;28;47495;-53
2022/07/03 00:20:38;;;;;;;;;4.25;1.50;;;;;23.32;38.61;101337.22;2087098;28;47344;-50
2022/07/03 00:21:45;;;;;;;;;1.80;1.80;;;;;23.30;38.63;101334.63;2094363;28;48022;-52
2022/07/03 00:22:48;;;;;;;;;1.40;1.40;;;;;23.30;38.35;101340.03;2091799;28;48381;-51
2022/07/03 00:23:59;;;;;;;;;1.00;1.00;;;;;23.29;38.64;101335.59;2087118;28;47642;-50
2022/07/03 00:25:05;;;;;;;;;1.60;1.60;;;;;23.28;38.73;101338.41;2087265;28;47949;-52
2022/07/03 00:26:07;;;;;;;;;2.80;1.80;;;;;23.28;38.56;101341.09;2087432;28;46363;-54
2022/07/03 00:27:09;;;;;;;;;0.00;0.00;;;;;23.26;38.65;101333.09;2087159;28;47956;-54
2022/07/03 00:28:10;;;;;;;;;3.20;3.20;;;;;23.25;38.42;101339.47;2087030;28;47781;-54
2022/07/03 00:29:12;;;;;;;;;1.67;1.00;;;;;23.25;38.79;101331.34;2087248;28;47897;-54
2022/07/03 00:30:13;;;;;;;;;1.50;1.50;;;;;23.25;38.95;101334.06;2088935;28;47814;-51
2022/07/03 00:31:14;;;;;;;;;2.33;2.33;;;;;23.24;38.81;101339.53;2087403;28;47676;-48
2022/07/03 00:32:21;;;;;;;;;1.00;1.00;;;;;23.24;38.68;101337.72;2087043;28;48187;-51
2022/07/03 00:33:24;;;;;;;;;0.00;0.00;;;;;23.24;38.66;101332.28;2087280;28;48109;-50
2022/07/03 00:34:28;;;;;;;;;0.80;0.80;;;;;23.23;38.62;101335.09;2087136;28;46718;-48
2022/07/03 00:35:31;;;;;;;;;1.25;1.25;;;;;23.23;38.54;101330.56;2087187;28;47559;-52
2022/07/03 00:36:37;;;;;;;;;1.80;0.80;;;;;23.22;39.00;101325.25;2086773;28;47723;-52
2022/07/03 00:37:37;;;;;;;;;1.00;1.00;;;;;23.21;38.44;101327.06;2087214;28;47893;-52
2022/07/03 00:38:38;;;;;;;;;0.00;0.00;;;;;23.20;38.42;101331.63;2087142;28;47979;-54
2022/07/03 00:39:40;;;;;;;;;1.00;1.00;;;;;23.20;38.68;101325.34;2087137;28;47650;-54
2022/07/03 00:40:40;;;;;;;;;1.50;1.00;;;;;23.20;38.78;101330.75;2087161;28;47687;-53
2022/07/03 00:41:44;;;;;;;;;2.50;2.50;;;;;23.20;38.50;101328.06;2087009;28;48379;-51
2022/07/03 00:42:51;;;;;;;;;1.00;1.00;;;;;23.20;38.52;101330.75;2086941;28;48048;-53
2022/07/03 00:43:51;;;;;;;;;2.50;1.00;;;;;23.19;38.76;101331.72;2087254;28;47882;-52
2022/07/03 00:44:56;;;;;;;;;0.00;0.00;;;;;23.19;38.76;101329.03;2087060;28;47317;-53
2022/07/03 00:46:07;;;;;;;;;2.00;0.25;;;;;23.18;38.72;101336.28;2087133;28;46630;-53
2022/07/03 00:47:08;;;;;;;;;1.00;1.00;;;;;23.18;38.70;101332.69;2087078;28;47551;-52
2022/07/03 00:48:10;;;;;;;;;5.00;4.50;;;;;23.17;38.75;101337.25;2086948;28;47900;-51
2022/07/03 00:49:11;;;;;;;;;3.20;3.20;;;;;23.16;38.54;101332.81;2086754;28;47852;-52
2022/07/03 00:50:12;;;;;;;;;4.00;4.00;;;;;23.17;38.79;101336.38;2086839;28;47311;-52
2022/07/03 00:51:15;;;;;;;;;2.40;2.40;;;;;23.16;38.71;101334.66;2086888;28;47800;-49
2022/07/03 00:52:18;;;;;;;;;2.00;2.00;;;;;23.13;38.56;101333.00;2087026;28;47372;-51
2022/07/03 00:53:31;;;;;;;;;0.80;0.80;;;;;23.12;38.93;101342.09;2078757;28;47535;-50
2022/07/03 00:54:34;;;;;;;;;0.40;0.40;;;;;23.11;38.83;101336.75;2086819;28;47583;-52
2022/07/03 00:55:36;;;;;;;;;1.00;1.00;;;;;23.11;39.31;101336.75;2084418;28;47585;-52
2022/07/03 00:56:39;;;;;;;;;0.80;0.80;;;;;23.08;39.07;101340.53;2086943;28;47663;-53
2022/07/03 00:57:48;;;;;;;;;1.40;1.20;;;;;23.10;39.16;101343.16;2086926;28;47564;-51
2022/07/03 00:58:53;;;;;;;;;1.00;1.00;;;;;23.09;38.82;101336.00;2086252;28;47649;-51
2022/07/03 00:59:54;;;;;;;;;1.00;0.80;;;;;23.07;39.25;101344.22;2086565;28;47613;-52
2022/07/03 01:00:57;;;;;;;;;0.00;0.00;;;;;23.07;39.10;101337.94;2086644;28;47704;-50
2022/07/03 01:02:05;;;;;;;;;0.00;0.00;;;;;23.07;39.43;101340.63;2086886;28;46793;-52
2022/07/03 01:03:07;;;;;;;;;0.75;0.75;;;;;23.06;39.04;101334.34;2086778;28;48098;-52
2022/07/03 01:04:20;;;;;;;;;0.75;0.75;;;;;23.04;39.07;101339.00;2086926;28;47945;-53
2022/07/03 01:05:35;;;;;;;;;1.00;1.00;;;;;23.04;38.85;101343.56;2086656;28;47673;-51
2022/07/03 01:06:52;;;;;;;;;1.00;1.00;;;;;23.03;38.98;101336.41;2087214;28;47502;-52
2022/07/03 01:08:12;;;;;;;;;1.20;1.20;;;;;23.02;39.24;101346.38;2086987;28;47823;-53
2022/07/03 01:09:12;;;;;;;;;2.25;1.25;;;;;23.01;39.07;101338.34;2086965;28;48034;-52
2022/07/03 01:10:37;;;;;;;;;0.00;0.00;;;;;23.01;39.09;101343.75;2086885;28;46682;-52
2022/07/03 01:11:46;;;;;;;;;0.00;0.00;;;;;22.99;39.33;101335.69;2078745;28;47908;-52
2022/07/03 01:12:49;;;;;;;;;0.00;0.00;;;;;22.98;39.45;101336.69;2084888;28;48136;-50
2022/07/03 01:13:56;;;;;;;;;1.75;1.75;;;;;22.97;38.92;101337.66;2086668;28;47616;-53
2022/07/03 01:15:07;;;;;;;;;0.00;0.00;;;;;22.97;39.17;101343.06;2087100;28;47704;-48
2022/07/03 01:16:36;;;;;;;;;0.25;0.25;;;;;22.96;39.28;101346.72;2081078;28;46689;-51
2022/07/03 01:17:48;;;;;;;;;1.00;0.50;;;;;22.95;39.43;101347.69;2086514;28;47778;-53
2022/07/03 01:18:53;;;;;;;;;1.00;1.00;;;;;22.94;39.38;101340.56;2086788;28;48241;-52
2022/07/03 01:20:02;;;;;;;;;0.00;0.00;;;;;22.94;39.31;101345.09;2086492;28;47250;-52
2022/07/03 01:21:23;;;;;;;;;0.75;0.75;;;;;22.93;39.38;101346.94;2078944;28;47321;-50
2022/07/03 01:22:41;;;;;;;;;2.00;1.00;;;;;22.92;39.49;101345.19;2086337;28;47626;-53
2022/07/03 01:24:28;;;;;;;;;2.80;2.00;;;;;22.91;39.60;101351.59;2086785;28;47536;-53
2022/07/03 01:25:45;;;;;;;;;1.00;1.00;;;;;22.89;39.48;101345.41;2085913;28;47675;-53
2022/07/03 01:26:47;;;;;;;;;1.75;1.75;;;;;22.89;39.39;101343.56;2086000;28;47299;-50
2022/07/03 01:28:00;;;;;;;;;2.25;1.75;;;;;22.89;39.47;101346.28;2085996;28;47464;-51
2022/07/03 01:29:07;;;;;;;;;3.75;3.00;;;;;22.89;39.40;101348.09;2085764;28;47428;-53
2022/07/03 01:30:10;;;;;;;;;1.00;1.00;;;;;22.87;39.48;101348.22;2088285;28;48114;-53
2022/07/03 01:31:17;;;;;;;;;2.60;2.60;;;;;22.86;39.43;101349.16;2094151;28;47593;-53
2022/07/03 01:32:22;;;;;;;;;2.25;1.25;;;;;22.85;39.56;101347.41;2085675;28;48170;-51
2022/07/03 01:33:24;;;;;;;;;1.25;1.25;;;;;22.85;39.35;101349.25;2085742;28;47601;-50
2022/07/03 01:34:33;;;;;;;;;2.25;2.25;;;;;22.84;39.37;101347.50;2085674;28;47784;-52
2022/07/03 01:35:35;;;;;;;;;0.25;0.25;;;;;22.82;39.36;101344.88;2085865;28;45831;-52
2022/07/03 01:36:40;;;;;;;;;2.00;2.00;;;;;22.81;39.61;101342.25;2085804;28;47551;-50
2022/07/03 01:37:41;;;;;;;;;1.00;1.00;;;;;22.80;39.09;101345.94;2085760;28;47698;-54
2022/07/03 01:38:42;;;;;;;;;1.00;1.00;;;;;22.80;39.37;101345.94;2085783;28;47341;-51
2022/07/03 01:39:44;;;;;;;;;2.25;1.75;;;;;22.78;39.42;101350.59;2076957;28;47770;-52
2022/07/03 01:40:45;;;;;;;;;2.50;2.25;;;;;22.78;39.49;101342.47;2077465;28;47657;-52
2022/07/03 01:41:48;;;;;;;;;0.75;0.75;;;;;22.77;39.93;101340.72;2086839;28;47656;-52
2022/07/03 01:42:49;;;;;;;;;1.00;1.00;;;;;22.75;39.51;101338.13;2087058;28;47895;-53
2022/07/03 01:43:55;;;;;;;;;2.00;2.00;;;;;22.76;39.67;101347.97;2087163;28;48044;-52
2022/07/03 01:44:59;;;;;;;;;4.25;2.25;;;;;22.73;39.59;101340.03;2087196;28;47914;-52
2022/07/03 01:46:01;;;;;;;;;1.00;1.00;;;;;22.73;39.66;101347.28;2086983;28;47969;-54
2022/07/03 01:47:02;;;;;;;;;1.75;1.75;;;;;22.72;39.74;101340.13;2078968;28;47218;-54
2022/07/03 01:48:05;;;;;;;;;1.67;1.67;;;;;22.72;39.70;101340.13;2078874;28;47858;-50
2022/07/03 01:49:09;;;;;;;;;2.00;2.00;;;;;22.72;39.80;101341.00;2087147;28;48218;-53
2022/07/03 01:50:11;;;;;;;;;1.25;1.25;;;;;22.72;39.66;101340.13;2079143;28;47688;-51
2022/07/03 01:51:15;;;;;;;;;1.00;1.00;;;;;22.71;39.33;101341.09;2084362;28;47777;-50
2022/07/03 01:52:17;;;;;;;;;3.00;2.00;;;;;22.68;39.94;101342.16;2086827;28;47662;-52
2022/07/03 01:53:20;;;;;;;;;2.80;1.40;;;;;22.67;40.01;101335.00;2087165;28;47854;-52
2022/07/03 01:54:25;;;;;;;;;1.75;1.75;;;;;22.67;40.02;101345.84;2078221;28;47164;-51
2022/07/03 01:55:29;;;;;;;;;0.00;0.00;;;;;22.67;39.70;101337.72;2079129;28;46188;-51
2022/07/03 01:56:32;;;;;;;;;2.00;2.00;;;;;22.66;39.96;101340.53;2078513;28;47397;-51
2022/07/03 01:57:44;;;;;;;;;1.00;1.00;;;;;22.64;40.04;101348.72;2078650;28;47887;-47
2022/07/03 01:58:45;;;;;;;;;0.20;0.20;;;;;22.62;39.86;101339.84;2087102;28;48206;-51
2022/07/03 01:59:45;;;;;;;;;1.00;1.00;;;;;22.61;39.90;101333.56;2088167;28;47769;-52
2022/07/03 02:00:54;;;;;;;;;1.33;0.67;;;;;22.61;39.99;101335.38;2086789;28;47362;-52
2022/07/03 02:02:12;;;;;;;;;0.00;0.00;;;;;22.59;39.76;101338.19;2087791;28;47935;-51
2022/07/03 02:03:23;;;;;;;;;0.75;0.75;;;;;22.59;39.52;101334.59;2088023;28;48315;-53
2022/07/03 02:04:30;;;;;;;;;0.00;0.00;;;;;22.60;40.16;101334.50;2087885;28;47579;-53
2022/07/03 02:05:37;;;;;;;;;1.00;0.00;;;;;22.58;39.70;101336.44;2087964;28;47501;-48
2022/07/03 02:06:49;;;;;;;;;0.50;0.50;;;;;22.58;40.14;101338.28;2079559;28;47546;-52
2022/07/03 02:08:00;;;;;;;;;0.25;0.25;;;;;22.57;39.99;101333.84;2086925;28;47560;-50
2022/07/03 02:09:04;;;;;;;;;1.00;1.00;;;;;22.56;40.32;101335.69;2088095;28;47777;-51
2022/07/03 02:10:07;;;;;;;;;0.75;0.75;;;;;22.56;40.09;101340.22;2087415;28;47254;-53
2022/07/03 02:11:16;;;;;;;;;0.00;0.00;;;;;22.54;39.91;101336.75;2087125;28;47837;-52
2022/07/03 02:12:19;;;;;;;;;2.50;2.25;;;;;22.51;39.99;101334.22;2087948;28;47630;-53
2022/07/03 02:13:23;;;;;;;;;1.75;1.75;;;;;22.50;40.33;101338.78;2088010;28;46893;-51
2022/07/03 02:14:30;;;;;;;;;0.50;0.50;;;;;22.48;39.93;101337.09;2087952;28;47498;-51
2022/07/03 02:15:33;;;;;;;;;1.00;1.00;;;;;22.46;40.12;101334.50;2086890;28;47784;-52
2022/07/03 02:17:17;;;;;;;;;0.00;0.00;;;;;22.45;39.84;101332.75;2079603;28;47266;-51
2022/07/03 02:18:30;;;;;;;;;2.00;1.00;;;;;22.45;40.53;101331.88;2062569;28;47981;-51
2022/07/03 02:19:33;;;;;;;;;1.75;1.00;;;;;22.44;40.51;101336.44;2070473;28;47951;-46
2022/07/03 02:20:39;;;;;;;;;1.00;1.00;;;;;22.42;39.88;101332.09;2070055;28;47666;-52
2022/07/03 02:21:52;;;;;;;;;0.25;0.25;;;;;22.41;40.42;101347.44;2070426;28;46071;-52
2022/07/03 02:22:59;;;;;;;;;0.75;0.75;;;;;22.39;40.39;101335.84;2067036;28;47794;-51
2022/07/03 02:24:17;;;;;;;;;1.25;0.75;;;;;22.36;40.34;101335.16;2068146;28;47447;-51
2022/07/03 02:25:31;;;;;;;;;0.25;0.25;;;;;22.36;40.43;101340.56;2070206;28;47913;-53
2022/07/03 02:26:39;;;;;;;;;1.00;1.00;;;;;22.34;40.42;101329.84;2070403;28;47923;-52
2022/07/03 02:27:52;;;;;;;;;0.00;0.00;;;;;22.32;40.03;101337.19;2070499;28;48233;-52
2022/07/03 02:29:07;;;;;;;;;0.25;0.25;;;;;22.30;40.43;101336.41;2070440;28;47757;-52
2022/07/03 02:30:08;;;;;;;;;0.00;0.00;;;;;22.30;40.68;101342.69;2068231;28;47537;-52
2022/07/03 02:31:11;;;;;;;;;0.50;0.50;;;;;22.29;40.64;101338.25;2070014;28;47923;-54
2022/07/03 02:32:17;;;;;;;;;1.00;0.25;;;;;22.27;40.75;101332.06;2068894;28;47819;-52
2022/07/03 02:33:26;;;;;;;;;1.00;1.00;;;;;22.27;40.11;101339.31;2069720;28;48020;-52
2022/07/03 02:34:28;;;;;;;;;1.00;1.00;;;;;22.25;40.91;101336.69;2070171;28;47475;-51
2022/07/03 02:35:33;;;;;;;;;1.00;1.00;;;;;22.25;40.46;101334.00;2070441;28;47740;-51
2022/07/03 02:36:40;;;;;;;;;2.25;1.75;;;;;22.25;40.45;101327.72;2070174;28;47710;-52
2022/07/03 02:38:10;;;;;;;;;1.00;1.00;;;;;22.26;41.08;101342.97;2070503;28;47482;-53
2022/07/03 02:39:16;;;;;;;;;1.25;1.25;;;;;22.24;40.75;101334.97;2070427;28;47836;-53
2022/07/03 02:40:25;;;;;;;;;1.75;1.75;;;;;22.25;40.43;101339.41;2070241;28;47351;-52
2022/07/03 02:41:42;;;;;;;;;1.00;1.00;;;;;22.25;40.71;101349.34;2068348;28;47683;-52
2022/07/03 02:42:55;;;;;;;;;1.00;1.00;;;;;22.25;40.79;101341.22;2070118;28;47449;-52
2022/07/03 02:44:02;;;;;;;;;0.00;0.00;;;;;22.24;41.07;101347.59;2070363;28;48036;-51
2022/07/03 02:45:07;;;;;;;;;0.00;0.00;;;;;22.22;41.06;101344.97;2062304;28;47419;-53
2022/07/03 02:47:58;;;;;;;;;0.25;0.25;;;;;22.22;41.06;101350.38;2070312;28;47758;-50
2022/07/03 02:49:31;;;;;;;;;1.00;0.00;;;;;22.24;41.13;101350.31;2070333;28;47697;-51
2022/07/03 02:50:33;;;;;;;;;1.50;1.50;;;;;22.23;41.07;101352.16;2045830;28;47357;-55
2022/07/03 02:51:37;;;;;;;;;0.00;0.00;;;;;22.23;40.82;101346.75;2045774;28;47794;-50
2022/07/03 02:52:38;;;;;;;;;0.75;0.75;;;;;22.24;41.24;101353.88;2048526;28;48163;-49
2022/07/03 02:53:44;;;;;;;;;1.25;1.25;;;;;22.25;40.92;101352.06;2062943;28;47728;-53
2022/07/03 02:54:46;;;;;;;;;0.75;0.75;;;;;22.24;40.51;101353.00;2069921;28;48410;-51
2022/07/03 02:55:47;;;;;;;;;0.75;0.75;;;;;22.24;41.18;101359.28;2069949;28;47582;-53
2022/07/03 02:57:07;;;;;;;;;0.33;0.33;;;;;22.23;41.05;101352.16;2070273;28;47824;-50
2022/07/03 02:58:42;;;;;;;;;0.00;0.00;;;;;22.23;40.87;101346.75;2069920;28;47875;-50
2022/07/03 02:59:54;;;;;;;;;1.75;1.75;;;;;22.23;41.07;101354.84;2063036;28;47587;-51
2022/07/03 03:01:08;;;;;;;;;0.25;0.25;;;;;22.22;41.15;101357.63;2063431;28;47651;-51
2022/07/03 03:02:46;;;;;;;;;0.25;0.25;;;;;22.20;40.67;101355.00;2069900;28;47628;-52
2022/07/03 03:04:07;;;;;;;;;1.25;0.75;;;;;22.20;40.80;101356.84;2070003;28;48556;-51
2022/07/03 03:05:15;;;;;;;;;0.00;0.00;;;;;22.19;40.63;101355.09;2070105;28;47715;-52
2022/07/03 03:06:20;;;;;;;;;1.75;1.75;;;;;22.18;40.79;101359.63;2069986;28;47836;-48
2022/07/03 03:07:37;;;;;;;;;2.00;2.00;;;;;22.17;41.14;101357.91;2070053;28;47792;-49
2022/07/03 03:08:48;;;;;;;;;1.25;1.25;;;;;22.16;40.70;101355.28;2070291;28;45033;-52
2022/07/03 03:09:49;;;;;;;;;1.00;1.00;;;;;22.15;40.94;101358.97;2069954;28;47582;-50
2022/07/03 03:10:50;;;;;;;;;1.00;1.00;;;;;22.14;41.05;101355.38;2069900;28;48077;-51
2022/07/03 03:11:52;;;;;;;;;1.50;1.50;;;;;22.14;41.38;101363.50;2069852;28;47459;-51
2022/07/03 03:13:04;;;;;;;;;1.40;1.00;;;;;22.13;41.13;101350.94;2070130;28;47751;-52
2022/07/03 03:14:10;;;;;;;;;1.00;1.00;;;;;22.13;41.22;101361.75;2069972;28;48296;-51
2022/07/03 03:15:12;;;;;;;;;1.00;1.00;;;;;22.13;41.29;101355.50;2070174;28;46900;-52
2022/07/03 03:16:14;;;;;;;;;1.50;1.25;;;;;22.14;40.92;101360.78;2063468;28;47980;-51
2022/07/03 03:17:23;;;;;;;;;0.25;0.25;;;;;22.13;41.43;101350.94;2066920;28;46468;-53
2022/07/03 03:18:27;;;;;;;;;0.00;0.00;;;;;22.14;41.21;101355.38;2069887;28;47809;-51
2022/07/03 03:19:28;;;;;;;;;1.25;1.25;;;;;22.13;40.88;101355.50;2070064;28;47543;-51
2022/07/03 03:20:31;;;;;;;;;1.00;0.00;;;;;22.14;40.79;101354.53;2069703;28;47660;-49
2022/07/03 03:21:42;;;;;;;;;0.75;0.75;;;;;22.14;40.84;101354.53;2061615;28;47723;-52
2022/07/03 03:23:08;;;;;;;;;1.80;0.80;;;;;22.12;41.08;101354.63;2063086;28;47315;-50
2022/07/03 03:24:09;;;;;;;;;0.50;0.50;;;;;22.10;41.18;101359.22;2053686;28;47619;-49
2022/07/03 03:25:10;;;;;;;;;1.33;1.33;;;;;22.10;41.12;101361.06;2053629;28;47609;-51
2022/07/03 03:26:20;;;;;;;;;1.00;1.00;;;;;22.10;41.14;101361.06;2053795;28;47796;-49
2022/07/03 03:27:21;;;;;;;;;0.00;0.00;;;;;22.10;41.08;101358.34;2048314;28;48183;-50
2022/07/03 03:28:22;;;;;;;;;1.00;1.00;;;;;22.10;41.54;101352.94;2069595;28;47896;-51
2022/07/03 03:29:22;;;;;;;;;0.75;0.75;;;;;22.10;41.41;101352.94;2078320;28;47647;-51
2022/07/03 03:30:23;;;;;;;;;0.75;0.75;;;;;22.11;41.18;101352.88;2077993;28;47426;-51
2022/07/03 03:31:23;;;;;;;;;0.50;0.50;;;;;22.10;41.48;101356.50;2078098;28;48058;-52
2022/07/03 03:32:25;;;;;;;;;0.00;0.00;;;;;22.10;41.21;101350.25;2078398;28;47642;-51
2022/07/03 03:33:27;;;;;;;;;1.40;0.40;;;;;22.11;41.67;101354.72;2080691;28;47626;-52
2022/07/03 03:34:29;;;;;;;;;1.40;1.00;;;;;22.09;41.55;101354.78;2078318;28;48066;-52
2022/07/03 03:35:29;;;;;;;;;0.00;0.00;;;;;22.10;41.51;101352.94;2053418;28;47358;-50
2022/07/03 03:36:31;;;;;;;;;1.00;1.00;;;;;22.10;41.71;101355.66;2053571;28;47620;-53
2022/07/03 03:37:32;;;;;;;;;1.00;1.00;;;;;22.10;41.77;101359.22;2078234;28;47464;-48
2022/07/03 03:38:32;;;;;;;;;1.00;1.00;;;;;22.09;41.86;101352.06;2077889;28;47679;-50
2022/07/03 03:39:33;;;;;;;;;1.00;1.00;;;;;22.08;41.46;101350.34;2078102;28;47579;-52
2022/07/03 03:40:34;;;;;;;;;2.25;1.75;;;;;22.07;41.34;101359.41;2078103;28;47822;-49
2022/07/03 03:41:35;;;;;;;;;1.20;0.00;;;;;22.07;41.60;101353.13;2061233;28;47987;-52
2022/07/03 03:42:35;;;;;;;;;0.75;0.75;;;;;22.07;41.59;101355.84;2053137;28;47980;-51
2022/07/03 03:43:36;;;;;;;;;2.50;1.25;;;;;22.07;41.29;101350.44;2069746;28;47540;-49
2022/07/03 03:44:38;;;;;;;;;0.40;0.40;;;;;22.08;41.54;101350.34;2067192;28;47637;-49
2022/07/03 03:45:38;;;;;;;;;0.20;0.20;;;;;22.06;41.25;101349.56;2069923;28;47308;-53
2022/07/03 03:46:39;;;;;;;;;0.67;0.67;;;;;22.06;41.16;101348.69;2064331;28;47596;-53
2022/07/03 03:47:39;;;;;;;;;0.25;0.25;;;;;22.04;41.59;101351.47;2064762;28;47638;-53
2022/07/03 03:48:41;;;;;;;;;0.75;0.75;;;;;22.04;41.94;101354.16;2069577;28;46774;-53
2022/07/03 03:49:41;;;;;;;;;0.60;0.60;;;;;22.02;41.89;101354.25;2069646;28;48100;-53
2022/07/03 03:50:43;;;;;;;;;0.00;0.00;;;;;22.02;41.98;101356.09;2069658;28;46530;-54
2022/07/03 03:51:43;;;;;;;;;0.00;0.00;;;;;22.01;41.68;101351.66;2069611;28;47551;-49
2022/07/03 03:52:44;;;;;;;;;0.00;0.00;;;;;22.01;41.37;101357.91;2069500;28;47895;-51
2022/07/03 03:53:44;;;;;;;;;1.50;1.00;;;;;22.00;41.94;101358.00;2068960;28;48076;-51
2022/07/03 03:54:45;;;;;;;;;1.00;1.00;;;;;22.00;41.98;101358.00;2067939;28;47821;-53
2022/07/03 03:56:02;;;;;;;;;1.50;1.50;;;;;21.99;42.04;101354.44;2064571;28;46532;-52
2022/07/03 03:57:23;;;;;;;;;0.80;0.80;;;;;21.97;41.56;101361.75;2068452;28;48414;-48
2022/07/03 03:58:24;;;;;;;;;1.00;1.00;;;;;21.99;41.77;101367.09;2069929;28;47734;-51
2022/07/03 03:59:24;;;;;;;;;1.25;1.25;;;;;21.97;41.48;101366.28;2068546;28;47543;-51
2022/07/03 04:00:25;;;;;;;;;0.67;0.67;;;;;21.95;42.00;101366.38;2061782;28;47509;-51
2022/07/03 04:01:25;;;;;;;;;0.00;0.00;;;;;21.94;42.01;101361.06;2061503;28;47660;-52
2022/07/03 04:02:25;;;;;;;;;0.67;0.67;;;;;21.94;41.46;101361.94;2069426;28;47460;-52
2022/07/03 04:03:28;;;;;;;;;0.00;0.00;;;;;21.93;41.54;101362.91;2077784;28;46449;-52
2022/07/03 04:04:28;;;;;;;;;1.80;0.60;;;;;21.93;41.58;101362.91;2076847;28;47415;-51
2022/07/03 04:05:28;;;;;;;;;1.00;1.00;;;;;21.93;41.52;101362.03;2061342;28;47964;-51
2022/07/03 04:06:29;;;;;;;;;0.75;0.75;;;;;21.93;41.89;101367.44;2061456;28;47652;-50
2022/07/03 04:07:29;;;;;;;;;1.00;1.00;;;;;21.93;41.58;101364.72;2077693;28;47968;-51
2022/07/03 04:08:31;;;;;;;;;1.00;0.75;;;;;21.92;41.46;101366.56;2077985;28;47484;-52
2022/07/03 04:09:31;;;;;;;;;0.75;0.75;;;;;21.92;41.53;101358.44;2077792;28;47127;-51
2022/07/03 04:10:32;;;;;;;;;1.00;1.00;;;;;21.91;41.61;101363.94;2077687;28;47633;-53
2022/07/03 04:11:32;;;;;;;;;0.67;0.67;;;;;21.91;41.80;101362.13;2078102;28;47933;-52
2022/07/03 04:12:32;;;;;;;;;1.50;1.50;;;;;21.89;42.06;101366.75;2077486;28;47596;-51
2022/07/03 04:13:33;;;;;;;;;0.00;0.00;;;;;21.89;42.10;101368.59;2077933;28;47641;-51
2022/07/03 04:14:33;;;;;;;;;1.00;0.50;;;;;21.88;41.82;101367.72;2078124;28;47354;-51
2022/07/03 04:15:33;;;;;;;;;0.00;0.00;;;;;21.87;42.12;101376.78;2082356;28;47728;-50
2022/07/03 04:16:35;;;;;;;;;1.00;1.00;;;;;21.85;41.72;101365.19;2078887;28;47094;-51
2022/07/03 04:17:35;;;;;;;;;2.20;2.20;;;;;21.85;42.17;101375.09;2084574;28;47292;-53
2022/07/03 04:18:36;;;;;;;;;1.00;1.00;;;;;21.84;41.86;101370.66;2086678;28;47529;-51
2022/07/03 04:19:36;;;;;;;;;0.25;0.25;;;;;21.83;42.01;101377.91;2086994;28;47367;-53
2022/07/03 04:20:37;;;;;;;;;2.25;2.25;;;;;21.83;42.36;101369.78;2086698;28;47682;-54
2022/07/03 04:21:38;;;;;;;;;1.50;1.50;;;;;21.83;41.68;101375.19;2087248;28;47575;-52
2022/07/03 04:22:38;;;;;;;;;1.50;1.50;;;;;21.81;42.03;101377.13;2086766;28;47403;-51
2022/07/03 04:23:38;;;;;;;;;1.00;1.00;;;;;21.81;42.15;101373.56;2087039;28;47994;-51
2022/07/03 04:24:39;;;;;;;;;2.00;2.00;;;;;21.81;42.16;101374.41;2087032;28;47216;-51
2022/07/03 04:25:39;;;;;;;;;1.00;1.00;;;;;21.82;42.18;101381.56;2086902;28;47281;-51
2022/07/03 04:26:40;;;;;;;;;0.50;0.00;;;;;21.82;42.28;101375.28;2087108;28;47388;-53
2022/07/03 04:27:40;;;;;;;;;0.25;0.25;;;;;21.81;41.94;101379.81;2086997;28;47448;-51
2022/07/03 04:28:40;;;;;;;;;1.25;1.25;;;;;21.81;42.18;101377.13;2087057;28;47567;-52
2022/07/03 04:29:41;;;;;;;;;1.00;1.00;;;;;21.81;41.97;101377.13;2086988;28;47845;-53
2022/07/03 04:30:41;;;;;;;;;2.00;2.00;;;;;21.82;41.99;101376.16;2086929;28;47365;-52
2022/07/03 04:31:42;;;;;;;;;1.00;1.00;;;;;21.82;41.78;101378.84;2086406;28;47700;-50
2022/07/03 04:32:42;;;;;;;;;1.00;1.00;;;;;21.82;42.28;101373.47;2086800;28;47327;-53
2022/07/03 04:33:43;;;;;;;;;0.25;0.25;;;;;21.81;42.15;101379.81;2086714;28;47259;-50
2022/07/03 04:34:43;;;;;;;;;1.50;1.00;;;;;21.81;41.78;101385.22;2086299;28;48014;-53
2022/07/03 04:35:43;;;;;;;;;2.00;2.00;;;;;21.80;41.95;101380.78;2086420;28;45802;-52
2022/07/03 04:36:44;;;;;;;;;2.25;1.25;;;;;21.79;42.25;101379.03;2086650;28;45476;-52
2022/07/03 04:37:44;;;;;;;;;1.00;1.00;;;;;21.78;42.16;101374.59;2086618;28;47522;-50
2022/07/03 04:38:45;;;;;;;;;1.25;1.00;;;;;21.78;41.95;101381.84;2087050;28;46246;-51
2022/07/03 04:39:45;;;;;;;;;1.75;1.75;;;;;21.78;42.57;101384.53;2086422;28;47989;-53
2022/07/03 04:40:46;;;;;;;;;1.50;1.50;;;;;21.78;42.63;101388.13;2086807;28;46749;-50
2022/07/03 04:41:46;;;;;;;;;1.00;1.00;;;;;21.77;42.06;101389.06;2086404;28;47206;-49
2022/07/03 04:42:47;;;;;;;;;0.00;0.00;;;;;21.77;42.53;101390.91;2086011;28;47518;-50
2022/07/03 04:43:47;;;;;;;;;0.00;0.00;;;;;21.77;42.18;101388.22;2086749;28;47285;-50
2022/07/03 04:44:48;;;;;;;;;2.00;0.75;;;;;21.76;42.40;101392.75;2086861;28;47401;-53
2022/07/03 04:45:48;;;;;;;;;1.00;1.00;;;;;21.74;42.29;101390.13;2086806;28;47911;-52
2022/07/03 04:46:48;;;;;;;;;1.50;1.50;;;;;21.74;42.48;101395.53;2087221;28;47595;-53
2022/07/03 04:47:49;;;;;;;;;1.25;1.25;;;;;21.75;42.67;101388.31;2086790;28;47533;-53
2022/07/03 04:48:49;;;;;;;;;0.75;0.75;;;;;21.74;42.17;101383.84;2087296;28;48160;-51
2022/07/03 04:49:50;;;;;;;;;2.75;0.50;;;;;21.72;42.02;101389.34;2086839;28;47547;-52
2022/07/03 04:50:50;;;;;;;;;1.00;1.00;;;;;21.73;42.01;101393.78;2086864;28;47635;-51
2022/07/03 04:51:52;;;;;;;;;1.75;1.50;;;;;21.74;42.20;101389.25;2087076;28;48116;-52
2022/07/03 04:52:52;;;;;;;;;0.80;0.80;;;;;21.74;42.46;101400.06;2086985;28;47251;-49
2022/07/03 04:53:54;;;;;;;;;0.75;0.75;;;;;21.73;42.06;101393.78;2086860;28;47654;-52
2022/07/03 04:54:54;;;;;;;;;0.80;0.80;;;;;21.75;42.13;101393.69;2080158;28;47538;-52
2022/07/03 04:55:54;;;;;;;;;0.00;0.00;;;;;21.74;42.35;101395.53;2086278;28;47379;-52
2022/07/03 04:56:55;;;;;;;;;2.00;2.00;;;;;21.74;42.36;101392.84;2086292;28;47690;-50
2022/07/03 04:57:55;;;;;;;;;1.25;1.25;;;;;21.74;42.44;101395.53;2085511;28;47892;-52
2022/07/03 04:58:56;;;;;;;;;0.00;0.00;;;;;21.75;42.41;101399.09;2086779;28;47671;-53
2022/07/03 04:59:56;;;;;;;;;1.00;1.00;;;;;21.75;42.48;101388.31;2086747;28;47575;-52
2022/07/03 05:00:56;;;;;;;;;1.00;1.00;;;;;21.74;42.62;101392.84;2087354;28;47536;-49
2022/07/03 05:01:57;;;;;;;;;0.00;0.00;;;;;21.75;42.43;101391.00;2086723;28;47377;-52
2022/07/03 05:02:57;;;;;;;;;1.25;1.25;;;;;21.77;42.22;101390.91;2086547;28;47624;-52